PWSweather.com
Personal Weather Stations
Station Observations
133525
French Quarters West Seneca , West Seneca, NY 14224

French Quarters West Seneca West Seneca, NY 14224

Lat: 42.850058, Lon: -78.799754

Elevation: 603

Station Type: Davis Vantage Vue pro2

http://westsenecaweather.com/

Latest ConditionsUpdated 10:30:01 PM EDT Monday, Apr 23, 2018
Currently Today's Max Today's Min Today's Average
Temperature 64.1°F17.8°C 74.5°F23.6°C 35.4°F1.9°C 57.1°F13.9°C
Dew Point 35.8°F2.1°C 37.7°F3.2°C 22.3°F-5.4°C 28.6°F-1.9°C
Winds 3.5 mph NW5.6 kmh NW 8.1 mph NW13.0 kmh NW - 2.5 mph 4.0 kmh
Wind Gusts 6.9 mph11.1 kmh 11.5 mph18.5 kmh - -
Humidity 35% 70% 19% 37%
Pressure 30.18 in1022.0 mb 30.39 in1029.1 mb 30.14 in1020.7 mb -
Hour Temp Dew Point Humidity Winds Wind Gusts Pressure Precip Precip Rate Daily Precip Total
10:30 PM 64.1°F17.8°C 35.8°F2.1°C 35% 3.5 mph NW5.6 kmh NW 6.9 mph11.1 kmh 30.18 in1022.0 mb - 0.00 in0.0 mm 0.00 in0.0 mm
10:20 PM 61.3°F16.3°C 34.8°F1.6°C 37% 3.5 mph NW5.6 kmh NW 10.4 mph16.7 kmh 30.18 in1022.0 mb - 0.00 in0.0 mm 0.00 in0.0 mm
10:10 PM 58.4°F14.7°C 36.5°F2.5°C 44% Calm Calm 4.6 mph7.4 kmh 30.18 in1022.0 mb - 0.00 in0.0 mm 0.00 in0.0 mm
10:00 PM 58.1°F14.5°C 37.4°F3.0°C 46% Calm Calm -- 30.18 in1022.0 mb - 0.00 in0.0 mm 0.00 in0.0 mm
09:50 PM 59.0°F15.0°C 37.7°F3.2°C 45% 1.2 mph S1.9 kmh S 1.2 mph1.9 kmh 30.18 in1022.0 mb - 0.00 in0.0 mm 0.00 in0.0 mm
09:40 PM 60.4°F15.8°C 37.2°F2.9°C 42% Calm Calm -- 30.18 in1022.0 mb - 0.00 in0.0 mm 0.00 in0.0 mm
09:30 PM 61.2°F16.2°C 36.1°F2.3°C 39% Calm Calm -- 30.18 in1022.0 mb - 0.00 in0.0 mm 0.00 in0.0 mm
09:20 PM 62.0°F16.7°C 36.1°F2.3°C 38% Calm Calm -- 30.17 in1021.7 mb - 0.00 in0.0 mm 0.00 in0.0 mm
09:10 PM 63.0°F17.2°C 36.3°F2.4°C 37% Calm Calm -- 30.18 in1022.0 mb - 0.00 in0.0 mm 0.00 in0.0 mm
09:00 PM 64.0°F17.8°C 35.1°F1.7°C 34% Calm Calm -- 30.17 in1021.7 mb - 0.00 in0.0 mm 0.00 in0.0 mm
08:50 PM 65.5°F18.6°C 34.8°F1.6°C 32% 2.3 mph S3.7 kmh S 3.5 mph5.6 kmh 30.17 in1021.7 mb - 0.00 in0.0 mm 0.00 in0.0 mm
08:40 PM 68.9°F20.5°C 32.6°F0.3°C 26% Calm Calm 3.5 mph5.6 kmh 30.16 in1021.3 mb - 0.00 in0.0 mm 0.00 in0.0 mm
08:30 PM 69.7°F20.9°C 32.3°F0.2°C 25% 2.3 mph NW3.7 kmh NW 3.5 mph5.6 kmh 30.16 in1021.3 mb - 0.00 in0.0 mm 0.00 in0.0 mm
08:20 PM 69.7°F20.9°C 33.2°F0.7°C 26% 4.6 mph NW7.4 kmh NW 8.1 mph13.0 kmh 30.16 in1021.3 mb - 0.00 in0.0 mm 0.00 in0.0 mm
08:10 PM 70.0°F21.1°C 33.5°F0.8°C 26% 1.2 mph W1.9 kmh W 3.5 mph5.6 kmh 30.16 in1021.3 mb - 0.00 in0.0 mm 0.00 in0.0 mm
08:00 PM 70.6°F21.4°C 33.0°F0.6°C 25% 2.3 mph WNW3.7 kmh WNW 3.5 mph5.6 kmh 30.15 in1021.0 mb - 0.00 in0.0 mm 0.00 in0.0 mm
07:50 PM 71.2°F21.8°C 32.5°F0.3°C 24% 2.3 mph WNW3.7 kmh WNW 4.6 mph7.4 kmh 30.15 in1021.0 mb - 0.00 in0.0 mm 0.00 in0.0 mm
07:40 PM 71.7°F22.1°C 33.0°F0.6°C 24% 3.5 mph WNW5.6 kmh WNW 9.2 mph14.8 kmh 30.15 in1021.0 mb - 0.00 in0.0 mm 0.00 in0.0 mm
07:30 PM 72.5°F22.5°C 33.6°F0.9°C 24% 3.5 mph W5.6 kmh W 5.8 mph9.3 kmh 30.15 in1021.0 mb - 0.00 in0.0 mm 0.00 in0.0 mm
07:20 PM 73.1°F22.8°C 34.2°F1.2°C 24% 4.6 mph W7.4 kmh W 6.9 mph11.1 kmh 30.14 in1020.7 mb - 0.00 in0.0 mm 0.00 in0.0 mm
07:10 PM 73.4°F23.0°C 34.4°F1.3°C 24% 4.6 mph NW7.4 kmh NW 5.8 mph9.3 kmh 30.14 in1020.7 mb - 0.00 in0.0 mm 0.00 in0.0 mm
07:00 PM 73.7°F23.2°C 34.6°F1.4°C 24% 4.6 mph W7.4 kmh W 9.2 mph14.8 kmh 30.14 in1020.7 mb - 0.00 in0.0 mm 0.00 in0.0 mm
06:50 PM 74.0°F23.3°C 34.9°F1.6°C 24% 3.5 mph W5.6 kmh W 3.5 mph5.6 kmh 30.14 in1020.7 mb - 0.00 in0.0 mm 0.00 in0.0 mm
06:40 PM 74.1°F23.4°C 35.0°F1.7°C 24% 2.3 mph WSW3.7 kmh WSW 4.6 mph7.4 kmh 30.15 in1021.0 mb - 0.00 in0.0 mm 0.00 in0.0 mm
06:30 PM 74.1°F23.4°C 35.0°F1.7°C 24% 4.6 mph W7.4 kmh W 6.9 mph11.1 kmh 30.15 in1021.0 mb - 0.00 in0.0 mm 0.00 in0.0 mm
06:20 PM 74.2°F23.4°C 34.0°F1.1°C 23% 3.5 mph W5.6 kmh W 4.6 mph7.4 kmh 30.15 in1021.0 mb - 0.00 in0.0 mm 0.00 in0.0 mm
06:10 PM 74.3°F23.5°C 37.2°F2.9°C 26% 3.5 mph W5.6 kmh W 3.5 mph5.6 kmh 30.16 in1021.3 mb - 0.00 in0.0 mm 0.00 in0.0 mm
06:00 PM 74.4°F23.6°C 36.3°F2.4°C 25% 1.2 mph WSW1.9 kmh WSW 2.3 mph3.7 kmh 30.16 in1021.3 mb - 0.00 in0.0 mm 0.00 in0.0 mm
05:50 PM 74.5°F23.6°C 36.3°F2.4°C 25% 5.8 mph WSW9.3 kmh WSW 6.9 mph11.1 kmh 30.16 in1021.3 mb - 0.00 in0.0 mm 0.00 in0.0 mm
05:40 PM 74.4°F23.6°C 37.3°F2.9°C 26% 3.5 mph WSW5.6 kmh WSW 5.8 mph9.3 kmh 30.16 in1021.3 mb - 0.00 in0.0 mm 0.00 in0.0 mm
05:30 PM 74.4°F23.6°C 36.3°F2.4°C 25% 4.6 mph WNW7.4 kmh WNW 5.8 mph9.3 kmh 30.17 in1021.7 mb - 0.00 in0.0 mm 0.00 in0.0 mm
05:20 PM 74.2°F23.4°C 36.1°F2.3°C 25% 3.5 mph SSE5.6 kmh SSE 4.6 mph7.4 kmh 30.17 in1021.7 mb - 0.00 in0.0 mm 0.00 in0.0 mm
05:10 PM 74.2°F23.4°C 36.1°F2.3°C 25% 3.5 mph S5.6 kmh S 4.6 mph7.4 kmh 30.18 in1022.0 mb - 0.00 in0.0 mm 0.00 in0.0 mm
05:00 PM 74.0°F23.3°C 35.9°F2.2°C 25% 2.3 mph WNW3.7 kmh WNW 3.5 mph5.6 kmh 30.18 in1022.0 mb - 0.00 in0.0 mm 0.00 in0.0 mm
04:50 PM 73.9°F23.3°C 34.8°F1.6°C 24% 4.6 mph WSW7.4 kmh WSW 5.8 mph9.3 kmh 30.19 in1022.4 mb - 0.00 in0.0 mm 0.00 in0.0 mm
04:40 PM 73.6°F23.1°C 33.5°F0.8°C 23% 3.5 mph N5.6 kmh N 3.5 mph5.6 kmh 30.19 in1022.4 mb - 0.00 in0.0 mm 0.00 in0.0 mm
04:30 PM 73.8°F23.2°C 34.7°F1.5°C 24% 4.6 mph WSW7.4 kmh WSW 9.2 mph14.8 kmh 30.19 in1022.4 mb - 0.00 in0.0 mm 0.00 in0.0 mm
04:20 PM 73.3°F22.9°C 32.1°F0.1°C 22% 3.5 mph S5.6 kmh S 4.6 mph7.4 kmh 30.20 in1022.7 mb - 0.00 in0.0 mm 0.00 in0.0 mm
04:10 PM 73.0°F22.8°C 33.0°F0.6°C 23% 2.3 mph SW3.7 kmh SW 5.8 mph9.3 kmh 30.20 in1022.7 mb - 0.00 in0.0 mm 0.00 in0.0 mm
04:00 PM 73.3°F22.9°C 31.0°F-0.6°C 21% 3.5 mph NW5.6 kmh NW 5.8 mph9.3 kmh 30.21 in1023.0 mb - 0.00 in0.0 mm 0.00 in0.0 mm
03:50 PM 73.1°F22.8°C 34.1°F1.2°C 24% 2.3 mph WNW3.7 kmh WNW 4.6 mph7.4 kmh 30.22 in1023.4 mb - 0.00 in0.0 mm 0.00 in0.0 mm
03:40 PM 72.4°F22.4°C 31.4°F-0.3°C 22% 2.3 mph WSW3.7 kmh WSW 9.2 mph14.8 kmh 30.22 in1023.4 mb - 0.00 in0.0 mm 0.00 in0.0 mm
03:30 PM 72.4°F22.4°C 31.4°F-0.3°C 22% 5.8 mph SW9.3 kmh SW 6.9 mph11.1 kmh 30.23 in1023.7 mb - 0.00 in0.0 mm 0.00 in0.0 mm
03:20 PM 71.9°F22.2°C 29.8°F-1.2°C 21% 1.2 mph E1.9 kmh E 2.3 mph3.7 kmh 30.23 in1023.7 mb - 0.00 in0.0 mm 0.00 in0.0 mm
03:10 PM 72.0°F22.2°C 31.0°F-0.6°C 22% 3.5 mph SW5.6 kmh SW 3.5 mph5.6 kmh 30.24 in1024.0 mb - 0.00 in0.0 mm 0.00 in0.0 mm
03:00 PM 72.2°F22.3°C 32.3°F0.2°C 23% 4.6 mph WSW7.4 kmh WSW 5.8 mph9.3 kmh 30.25 in1024.4 mb - 0.00 in0.0 mm 0.00 in0.0 mm
02:50 PM 72.2°F22.3°C 30.0°F-1.1°C 21% 3.5 mph SW5.6 kmh SW 3.5 mph5.6 kmh 30.25 in1024.4 mb - 0.00 in0.0 mm 0.00 in0.0 mm
02:40 PM 71.1°F21.7°C 31.4°F-0.3°C 23% 3.5 mph W5.6 kmh W 9.2 mph14.8 kmh 30.26 in1024.7 mb - 0.00 in0.0 mm 0.00 in0.0 mm
02:30 PM 71.3°F21.8°C 31.6°F-0.2°C 23% 4.6 mph W7.4 kmh W 8.1 mph13.0 kmh 30.26 in1024.7 mb - 0.00 in0.0 mm 0.00 in0.0 mm
02:20 PM 70.6°F21.4°C 28.7°F-1.8°C 21% 2.3 mph NNE3.7 kmh NNE 3.5 mph5.6 kmh 30.27 in1025.1 mb - 0.00 in0.0 mm 0.00 in0.0 mm
02:10 PM 70.7°F21.5°C 30.0°F-1.1°C 22% 1.2 mph SW1.9 kmh SW 3.5 mph5.6 kmh 30.27 in1025.1 mb - 0.00 in0.0 mm 0.00 in0.0 mm
02:00 PM 70.1°F21.2°C 29.5°F-1.4°C 22% 3.5 mph WSW5.6 kmh WSW 3.5 mph5.6 kmh 30.28 in1025.4 mb - 0.00 in0.0 mm 0.00 in0.0 mm
01:50 PM 69.1°F20.6°C 27.5°F-2.5°C 21% 3.5 mph WSW5.6 kmh WSW 4.6 mph7.4 kmh 30.28 in1025.4 mb - 0.00 in0.0 mm 0.00 in0.0 mm
01:40 PM 68.8°F20.4°C 28.4°F-2.0°C 22% 5.8 mph W9.3 kmh W 10.4 mph16.7 kmh 30.28 in1025.4 mb - 0.00 in0.0 mm 0.00 in0.0 mm
01:30 PM 69.4°F20.8°C 28.8°F-1.8°C 22% 2.3 mph W3.7 kmh W 5.8 mph9.3 kmh 30.29 in1025.7 mb - 0.00 in0.0 mm 0.00 in0.0 mm
01:20 PM 68.6°F20.3°C 27.1°F-2.7°C 21% 3.5 mph SW5.6 kmh SW 3.5 mph5.6 kmh 30.29 in1025.7 mb - 0.00 in0.0 mm 0.00 in0.0 mm
01:10 PM 68.0°F20.0°C 24.2°F-4.3°C 19% 4.6 mph NW7.4 kmh NW 4.6 mph7.4 kmh 30.29 in1025.7 mb - 0.00 in0.0 mm 0.00 in0.0 mm
01:00 PM 68.4°F20.2°C 25.7°F-3.5°C 20% 4.6 mph N7.4 kmh N 5.8 mph9.3 kmh 30.30 in1026.1 mb - 0.00 in0.0 mm 0.00 in0.0 mm
12:50 PM 67.7°F19.8°C 25.1°F-3.8°C 20% 8.1 mph NW13.0 kmh NW 11.5 mph18.5 kmh 30.31 in1026.4 mb - 0.00 in0.0 mm 0.00 in0.0 mm
12:40 PM 67.3°F19.6°C 24.8°F-4.0°C 20% 3.5 mph WSW5.6 kmh WSW 8.1 mph13.0 kmh 30.31 in1026.4 mb - 0.00 in0.0 mm 0.00 in0.0 mm
12:30 PM 67.7°F19.8°C 25.1°F-3.8°C 20% 4.6 mph W7.4 kmh W 8.1 mph13.0 kmh 30.31 in1026.4 mb - 0.00 in0.0 mm 0.00 in0.0 mm
12:20 PM 67.6°F19.8°C 25.1°F-3.8°C 20% 4.6 mph WSW7.4 kmh WSW 8.1 mph13.0 kmh 30.32 in1026.8 mb - 0.00 in0.0 mm 0.00 in0.0 mm
12:10 PM 66.9°F19.4°C 24.5°F-4.2°C 20% 4.6 mph WNW7.4 kmh WNW 6.9 mph11.1 kmh 30.32 in1026.8 mb - 0.00 in0.0 mm 0.00 in0.0 mm
12:00 PM 66.8°F19.3°C 24.4°F-4.2°C 20% 5.8 mph W9.3 kmh W 6.9 mph11.1 kmh 30.33 in1027.1 mb - 0.00 in0.0 mm 0.00 in0.0 mm
11:50 AM 66.2°F19.0°C 23.9°F-4.5°C 20% 4.6 mph WSW7.4 kmh WSW 10.4 mph16.7 kmh 30.34 in1027.4 mb - 0.00 in0.0 mm 0.00 in0.0 mm
11:40 AM 66.6°F19.2°C 25.4°F-3.7°C 21% 3.5 mph W5.6 kmh W 8.1 mph13.0 kmh 30.34 in1027.4 mb - 0.00 in0.0 mm 0.00 in0.0 mm
11:30 AM 66.1°F18.9°C 26.1°F-3.3°C 22% 3.5 mph WNW5.6 kmh WNW 6.9 mph11.1 kmh 30.34 in1027.4 mb - 0.00 in0.0 mm 0.00 in0.0 mm
11:20 AM 64.9°F18.3°C 25.1°F-3.8°C 22% 2.3 mph W3.7 kmh W 3.5 mph5.6 kmh 30.35 in1027.8 mb - 0.00 in0.0 mm 0.00 in0.0 mm
11:10 AM 64.5°F18.1°C 23.7°F-4.6°C 21% 6.9 mph NW11.1 kmh NW 9.2 mph14.8 kmh 30.35 in1027.8 mb - 0.00 in0.0 mm 0.00 in0.0 mm
11:00 AM 64.3°F17.9°C 24.6°F-4.1°C 22% 6.9 mph WSW11.1 kmh WSW 6.9 mph11.1 kmh 30.35 in1027.8 mb - 0.00 in0.0 mm 0.00 in0.0 mm
10:50 AM 63.6°F17.6°C 28.0°F-2.2°C 26% 4.6 mph WNW7.4 kmh WNW 5.8 mph9.3 kmh 30.36 in1028.1 mb - 0.00 in0.0 mm 0.00 in0.0 mm
10:40 AM 63.1°F17.3°C 24.7°F-4.1°C 23% 6.9 mph WNW11.1 kmh WNW 8.1 mph13.0 kmh 30.36 in1028.1 mb - 0.00 in0.0 mm 0.00 in0.0 mm
10:30 AM 62.9°F17.2°C 27.5°F-2.5°C 26% 4.6 mph WNW7.4 kmh WNW 5.8 mph9.3 kmh 30.36 in1028.1 mb - 0.00 in0.0 mm 0.00 in0.0 mm
10:20 AM 62.0°F16.7°C 28.5°F-1.9°C 28% 4.6 mph WSW7.4 kmh WSW 4.6 mph7.4 kmh 30.36 in1028.1 mb - 0.00 in0.0 mm 0.00 in0.0 mm
10:10 AM 61.4°F16.3°C 28.0°F-2.2°C 28% 4.6 mph W7.4 kmh W 6.9 mph11.1 kmh 30.37 in1028.4 mb - 0.00 in0.0 mm 0.00 in0.0 mm
10:00 AM 60.8°F16.0°C 27.4°F-2.6°C 28% 5.8 mph WNW9.3 kmh WNW 4.6 mph7.4 kmh 30.38 in1028.8 mb - 0.00 in0.0 mm 0.00 in0.0 mm
09:50 AM 60.1°F15.6°C 28.5°F-1.9°C 30% 3.5 mph W5.6 kmh W 3.5 mph5.6 kmh 30.38 in1028.8 mb - 0.00 in0.0 mm 0.00 in0.0 mm
09:40 AM 59.8°F15.4°C 28.3°F-2.1°C 30% 4.6 mph NNW7.4 kmh NNW 9.2 mph14.8 kmh 30.38 in1028.8 mb - 0.00 in0.0 mm 0.00 in0.0 mm
09:30 AM 58.8°F14.9°C 26.5°F-3.1°C 29% 4.6 mph NW7.4 kmh NW 9.2 mph14.8 kmh 30.38 in1028.8 mb - 0.00 in0.0 mm 0.00 in0.0 mm
09:20 AM 57.6°F14.2°C 24.7°F-4.1°C 28% 2.3 mph W3.7 kmh W 3.5 mph5.6 kmh 30.38 in1028.8 mb - 0.00 in0.0 mm 0.00 in0.0 mm
09:10 AM 56.5°F13.6°C 23.7°F-4.6°C 28% 2.3 mph WSW3.7 kmh WSW 3.5 mph5.6 kmh 30.39 in1029.1 mb - 0.00 in0.0 mm 0.00 in0.0 mm
09:00 AM 55.8°F13.2°C 23.1°F-4.9°C 28% 3.5 mph W5.6 kmh W 4.6 mph7.4 kmh 30.39 in1029.1 mb - 0.00 in0.0 mm 0.00 in0.0 mm
08:50 AM 55.0°F12.8°C 23.3°F-4.8°C 29% 3.5 mph WSW5.6 kmh WSW 3.5 mph5.6 kmh 30.39 in1029.1 mb - 0.00 in0.0 mm 0.00 in0.0 mm
08:40 AM 53.9°F12.2°C 22.3°F-5.4°C 29% 3.5 mph WSW5.6 kmh WSW 4.6 mph7.4 kmh 30.39 in1029.1 mb - 0.00 in0.0 mm 0.00 in0.0 mm
08:30 AM 52.7°F11.5°C 23.6°F-4.7°C 32% 2.3 mph WSW3.7 kmh WSW 3.5 mph5.6 kmh 30.38 in1028.8 mb - 0.00 in0.0 mm 0.00 in0.0 mm
08:20 AM 51.3°F10.7°C 23.9°F-4.5°C 34% 3.5 mph WSW5.6 kmh WSW 4.6 mph7.4 kmh 30.38 in1028.8 mb - 0.00 in0.0 mm 0.00 in0.0 mm
08:10 AM 49.3°F9.6°C 24.7°F-4.1°C 38% 3.5 mph WSW5.6 kmh WSW 4.6 mph7.4 kmh 30.38 in1028.8 mb - 0.00 in0.0 mm 0.00 in0.0 mm
08:00 AM 47.0°F8.3°C 25.7°F-3.5°C 43% 2.3 mph SW3.7 kmh SW 6.9 mph11.1 kmh 30.38 in1028.8 mb - 0.00 in0.0 mm 0.00 in0.0 mm
07:50 AM 45.3°F7.4°C 25.2°F-3.8°C 45% 2.3 mph N3.7 kmh N 3.5 mph5.6 kmh 30.38 in1028.8 mb - 0.00 in0.0 mm 0.00 in0.0 mm
07:40 AM 44.0°F6.7°C 25.0°F-3.9°C 47% 2.3 mph N3.7 kmh N 3.5 mph5.6 kmh 30.38 in1028.8 mb - 0.00 in0.0 mm 0.00 in0.0 mm
07:30 AM 42.7°F5.9°C 24.9°F-3.9°C 49% 2.3 mph N3.7 kmh N 3.5 mph5.6 kmh 30.38 in1028.8 mb - 0.00 in0.0 mm 0.00 in0.0 mm
07:20 AM 41.5°F5.3°C 24.7°F-4.1°C 51% 2.3 mph N3.7 kmh N 4.6 mph7.4 kmh 30.38 in1028.8 mb - 0.00 in0.0 mm 0.00 in0.0 mm
07:10 AM 40.1°F4.5°C 24.8°F-4.0°C 54% 2.3 mph N3.7 kmh N 4.6 mph7.4 kmh 30.38 in1028.8 mb - 0.00 in0.0 mm 0.00 in0.0 mm
07:00 AM 38.6°F3.7°C 25.1°F-3.8°C 58% 2.3 mph SSW3.7 kmh SSW 3.5 mph5.6 kmh 30.38 in1028.8 mb - 0.00 in0.0 mm 0.00 in0.0 mm
06:50 AM 37.2°F2.9°C 25.0°F-3.9°C 61% 2.3 mph S3.7 kmh S 3.5 mph5.6 kmh 30.38 in1028.8 mb - 0.00 in0.0 mm 0.00 in0.0 mm
06:40 AM 36.3°F2.4°C 24.9°F-3.9°C 63% 1.2 mph SSW1.9 kmh SSW 3.5 mph5.6 kmh 30.38 in1028.8 mb - 0.00 in0.0 mm 0.00 in0.0 mm
06:30 AM 35.8°F2.1°C 25.2°F-3.8°C 65% Calm Calm -- 30.38 in1028.8 mb - 0.00 in0.0 mm 0.00 in0.0 mm
06:20 AM 35.8°F2.1°C 25.2°F-3.8°C 65% Calm Calm -- 30.37 in1028.4 mb - 0.00 in0.0 mm 0.00 in0.0 mm
06:10 AM 36.1°F2.3°C 25.5°F-3.6°C 65% Calm Calm -- 30.37 in1028.4 mb - 0.00 in0.0 mm 0.00 in0.0 mm
06:00 AM 36.5°F2.5°C 25.1°F-3.8°C 63% Calm Calm -- 30.37 in1028.4 mb - 0.00 in0.0 mm 0.00 in0.0 mm
05:50 AM 37.2°F2.9°C 25.4°F-3.7°C 62% Calm Calm -- 30.37 in1028.4 mb - 0.00 in0.0 mm 0.00 in0.0 mm
05:40 AM 37.0°F2.8°C 25.2°F-3.8°C 62% 2.3 mph SSW3.7 kmh SSW 2.3 mph3.7 kmh 30.36 in1028.1 mb - 0.00 in0.0 mm 0.00 in0.0 mm
05:30 AM 36.7°F2.6°C 25.7°F-3.5°C 64% 2.3 mph SW3.7 kmh SW 3.5 mph5.6 kmh 30.36 in1028.1 mb - 0.00 in0.0 mm 0.00 in0.0 mm
05:20 AM 36.1°F2.3°C 26.2°F-3.2°C 67% 2.3 mph SW3.7 kmh SW 3.5 mph5.6 kmh 30.36 in1028.1 mb - 0.00 in0.0 mm 0.00 in0.0 mm
05:10 AM 35.5°F1.9°C 26.7°F-2.9°C 70% 1.2 mph SW1.9 kmh SW 1.2 mph1.9 kmh 30.36 in1028.1 mb - 0.00 in0.0 mm 0.00 in0.0 mm
05:00 AM 35.4°F1.9°C 26.2°F-3.2°C 69% 1.2 mph SW1.9 kmh SW 1.2 mph1.9 kmh 30.36 in1028.1 mb - 0.00 in0.0 mm 0.00 in0.0 mm
04:50 AM 36.0°F2.2°C 26.1°F-3.3°C 67% 2.3 mph SW3.7 kmh SW 2.3 mph3.7 kmh 30.36 in1028.1 mb - 0.00 in0.0 mm 0.00 in0.0 mm
04:40 AM 36.7°F2.6°C 24.9°F-3.9°C 62% 2.3 mph SW3.7 kmh SW 2.3 mph3.7 kmh 30.36 in1028.1 mb - 0.00 in0.0 mm 0.00 in0.0 mm
04:30 AM 37.2°F2.9°C 25.0°F-3.9°C 61% 2.3 mph SW3.7 kmh SW 2.3 mph3.7 kmh 30.36 in1028.1 mb - 0.00 in0.0 mm 0.00 in0.0 mm
04:20 AM 37.0°F2.8°C 25.2°F-3.8°C 62% 1.2 mph SW1.9 kmh SW 1.2 mph1.9 kmh 30.36 in1028.1 mb - 0.00 in0.0 mm 0.00 in0.0 mm
04:10 AM 37.3°F2.9°C 25.1°F-3.8°C 61% Calm Calm -- 30.36 in1028.1 mb - 0.00 in0.0 mm 0.00 in0.0 mm
04:00 AM 37.7°F3.2°C 25.1°F-3.8°C 60% Calm Calm -- 30.36 in1028.1 mb - 0.00 in0.0 mm 0.00 in0.0 mm
03:50 AM 38.2°F3.4°C 25.1°F-3.8°C 59% Calm Calm -- 30.36 in1028.1 mb - 0.00 in0.0 mm 0.00 in0.0 mm
03:40 AM 38.5°F3.6°C 25.0°F-3.9°C 58% Calm Calm 1.2 mph1.9 kmh 30.36 in1028.1 mb - 0.00 in0.0 mm 0.00 in0.0 mm
03:30 AM 38.7°F3.7°C 25.2°F-3.8°C 58% 1.2 mph SW1.9 kmh SW 2.3 mph3.7 kmh 30.36 in1028.1 mb - 0.00 in0.0 mm 0.00 in0.0 mm
03:20 AM 38.7°F3.7°C 25.2°F-3.8°C 58% 1.2 mph SW1.9 kmh SW 2.3 mph3.7 kmh 30.36 in1028.1 mb - 0.00 in0.0 mm 0.00 in0.0 mm
03:10 AM 38.4°F3.6°C 25.7°F-3.5°C 60% 2.3 mph SW3.7 kmh SW 3.5 mph5.6 kmh 30.36 in1028.1 mb - 0.00 in0.0 mm 0.00 in0.0 mm
03:00 AM 38.1°F3.4°C 25.8°F-3.4°C 61% 1.2 mph SW1.9 kmh SW 2.3 mph3.7 kmh 30.36 in1028.1 mb - 0.00 in0.0 mm 0.00 in0.0 mm
02:50 AM 38.3°F3.5°C 25.6°F-3.6°C 60% Calm Calm -- 30.36 in1028.1 mb - 0.00 in0.0 mm 0.00 in0.0 mm
02:40 AM 38.6°F3.7°C 25.5°F-3.6°C 59% Calm Calm 1.2 mph1.9 kmh 30.37 in1028.4 mb - 0.00 in0.0 mm 0.00 in0.0 mm
02:30 AM 38.9°F3.8°C 25.4°F-3.7°C 58% 1.2 mph SW1.9 kmh SW 2.3 mph3.7 kmh 30.37 in1028.4 mb - 0.00 in0.0 mm 0.00 in0.0 mm
02:20 AM 38.9°F3.8°C 25.8°F-3.4°C 59% 1.2 mph SW1.9 kmh SW 1.2 mph1.9 kmh 30.37 in1028.4 mb - 0.00 in0.0 mm 0.00 in0.0 mm
02:10 AM 38.8°F3.8°C 25.3°F-3.7°C 58% 1.2 mph SW1.9 kmh SW 1.2 mph1.9 kmh 30.37 in1028.4 mb - 0.00 in0.0 mm 0.00 in0.0 mm
02:00 AM 39.3°F4.1°C 25.3°F-3.7°C 57% Calm Calm -- 30.38 in1028.8 mb - 0.00 in0.0 mm 0.00 in0.0 mm
01:50 AM 39.5°F4.2°C 25.1°F-3.8°C 56% 1.2 mph SW1.9 kmh SW 1.2 mph1.9 kmh 30.38 in1028.8 mb - 0.00 in0.0 mm 0.00 in0.0 mm
01:40 AM 39.9°F4.4°C 24.6°F-4.1°C 54% Calm Calm -- 30.38 in1028.8 mb - 0.00 in0.0 mm 0.00 in0.0 mm
01:30 AM 40.6°F4.8°C 24.8°F-4.0°C 53% Calm Calm -- 30.38 in1028.8 mb - 0.00 in0.0 mm 0.00 in0.0 mm
01:20 AM 40.8°F4.9°C 25.0°F-3.9°C 53% Calm Calm -- 30.38 in1028.8 mb - 0.00 in0.0 mm 0.00 in0.0 mm
01:10 AM 41.1°F5.1°C 24.8°F-4.0°C 52% Calm Calm -- 30.38 in1028.8 mb - 0.00 in0.0 mm 0.00 in0.0 mm
01:00 AM 41.9°F5.5°C 25.0°F-3.9°C 51% Calm Calm -- 30.38 in1028.8 mb - 0.00 in0.0 mm 0.00 in0.0 mm
12:50 AM 42.3°F5.7°C 24.0°F-4.4°C 48% Calm Calm 1.2 mph1.9 kmh 30.38 in1028.8 mb - 0.00 in0.0 mm 0.00 in0.0 mm
12:40 AM 42.5°F5.8°C 23.7°F-4.6°C 47% Calm Calm -- 30.38 in1028.8 mb - 0.00 in0.0 mm 0.00 in0.0 mm
12:30 AM 43.3°F6.3°C 23.9°F-4.5°C 46% Calm Calm -- 30.38 in1028.8 mb - 0.00 in0.0 mm 0.00 in0.0 mm
12:20 AM 44.0°F6.7°C 24.0°F-4.4°C 45% Calm Calm -- 30.37 in1028.4 mb - 0.00 in0.0 mm 0.00 in0.0 mm
12:10 AM 44.3°F6.8°C 23.7°F-4.6°C 44% Calm Calm 1.2 mph1.9 kmh 30.37 in1028.4 mb - 0.00 in0.0 mm 0.00 in0.0 mm
12:00 AM 44.9°F7.2°C 24.2°F-4.3°C 44% Calm Calm -- 30.37 in1028.4 mb - 0.00 in0.0 mm 0.00 in0.0 mm